Time;durP1;ratioP1;P1;durP2;ratioP2;P2;SDS_P1;SDS_P2;PMS_P1;PMS_P2;Temp;Humidity;BMP_temperature;BMP_pressure;BME280_temperature;BME280_humidity;BME280_pressure;Samples;Min_cycle;Max_cycle;Signal;HPM_P1;HPM_P2
2022/04/16 00:02:03;;;;;;;;;;;358.40;2329.60;;;;;;4808508;29;19991;-68
2022/04/16 00:04:29;;;;;;;17.10;9.23;;;358.40;2329.60;;;;;;4808119;29;20359;-68
2022/04/16 00:06:56;;;;;;;13.70;9.10;;;358.40;2329.60;;;;;;4808312;29;20019;-68
2022/04/16 00:09:22;;;;;;;13.15;10.05;;;358.40;2329.60;;;;;;4791627;29;20042;-68
2022/04/16 00:11:48;;;;;;;13.93;9.88;;;358.40;2329.60;;;;;;4807952;29;20031;-68
2022/04/16 00:14:15;;;;;;;15.50;10.70;;;358.40;2329.60;;;;;;4807954;29;20504;-68
2022/04/16 00:16:41;;;;;;;14.13;10.40;;;333.70;2329.60;;;;;;4807916;29;20400;-68
2022/04/16 00:19:08;;;;;;;16.95;10.20;;;358.40;2329.60;;;;;;4807781;29;20034;-68
2022/04/16 00:21:35;;;;;;;13.43;8.93;;;333.70;2329.60;;;;;;4807725;29;20117;-68
2022/04/16 00:24:02;;;;;;;14.65;9.93;;;358.40;2329.60;;;;;;4807749;29;20035;-68
2022/04/16 00:26:28;;;;;;;13.20;8.75;;;333.70;2329.60;;;;;;4791451;29;20041;-67
2022/04/16 00:28:54;;;;;;;14.25;9.93;;;333.60;2329.60;;;;;;4806626;29;20077;-68
2022/04/16 00:31:20;;;;;;;15.50;9.93;;;333.60;2329.60;;;;;;4807464;29;20082;-68
2022/04/16 00:33:47;;;;;;;;;;;333.70;2329.60;;;;;;4808007;29;20028;-67
2022/04/16 00:36:14;;;;;;;;;;;333.50;2329.60;;;;;;4791746;29;20312;-68
2022/04/16 00:38:40;;;;;;;18.48;9.70;;;333.50;2329.60;;;;;;4807677;29;19909;-68
2022/04/16 00:41:07;;;;;;;13.30;9.35;;;333.50;2329.60;;;;;;4807717;29;20046;-68
2022/04/16 00:43:33;;;;;;;16.52;10.30;;;333.40;2329.60;;;;;;4807411;29;20034;-68
2022/04/16 00:45:59;;;;;;;17.05;9.90;;;333.40;2329.60;;;;;;4807351;29;20031;-68
2022/04/16 00:48:26;;;;;;;13.98;10.80;;;333.30;2329.60;;;;;;4807165;29;20031;-69
2022/04/16 00:50:54;;;;;;;15.18;10.20;;;333.30;2329.60;;;;;;4807196;29;20039;-68
2022/04/16 00:53:20;;;;;;;12.57;10.15;;;333.30;2329.60;;;;;;4790968;29;20070;-68
2022/04/16 00:55:47;;;;;;;13.05;10.45;;;333.30;2329.60;;;;;;4807479;29;20035;-68
2022/04/16 00:58:13;;;;;;;13.77;11.10;;;333.30;2329.60;;;;;;4807152;29;20068;-68
2022/04/16 01:00:39;;;;;;;15.27;11.00;;;333.30;2329.60;;;;;;4790865;29;20122;-68
2022/04/16 01:03:06;;;;;;;16.38;10.40;;;333.20;2329.60;;;;;;4807054;29;20027;-67
2022/04/16 01:05:32;;;;;;;13.80;11.30;;;333.20;2329.60;;;;;;4807010;29;20115;-67
2022/04/16 01:07:59;;;;;;;13.15;11.55;;;333.20;2329.60;;;;;;4807294;29;20027;-68
2022/04/16 01:10:27;;;;;;;14.18;10.98;;;333.00;2329.60;;;;;;4806875;29;20078;-69
2022/04/16 01:13:01;;;;;;;13.55;11.65;;;333.00;2329.60;;;;;;4806962;29;20448;-68
2022/04/16 01:15:29;;;;;;;14.57;11.63;;;333.00;2329.60;;;;;;4807177;29;20027;-68
2022/04/16 01:17:56;;;;;;;15.95;11.43;;;332.90;2329.60;;;;;;4790600;29;20026;-71
2022/04/16 01:20:22;;;;;;;14.93;12.05;;;332.80;2329.60;;;;;;4806780;29;20105;-68
2022/04/16 01:22:50;;;;;;;12.93;11.40;;;332.80;2329.60;;;;;;4806730;29;20027;-68
2022/04/16 01:25:17;;;;;;;15.95;12.55;;;308.10;2304.00;;;;;;4806680;29;20109;-68
2022/04/16 01:27:43;;;;;;;12.63;11.02;;;332.80;2329.60;;;;;;4806687;29;20031;-68
2022/04/16 01:30:20;;;;;;;14.25;12.38;;;332.80;2329.60;;;;;;4790417;29;20040;-68
2022/04/16 01:32:48;;;;;;;12.50;11.20;;;332.80;2329.60;;;;;;4806525;29;20078;-68
2022/04/16 01:35:16;;;;;;;15.38;12.38;;;332.80;2329.60;;;;;;4806635;29;20056;-68
2022/04/16 01:37:42;;;;;;;15.35;11.32;;;308.10;2304.00;;;;;;4806521;29;20023;-68
2022/04/16 01:40:11;;;;;;;15.40;11.57;;;308.10;2304.00;;;;;;4806252;29;20038;-68
2022/04/16 01:42:37;;;;;;;13.75;11.35;;;308.10;2304.00;;;;;;4806500;29;20071;-68
2022/04/16 01:45:05;;;;;;;13.77;11.57;;;332.80;2329.60;;;;;;4806492;29;20392;-68
2022/04/16 01:47:36;;;;;;;15.38;11.85;;;308.10;2304.00;;;;;;4806457;29;20082;-67
2022/04/16 01:50:05;;;;;;;17.52;11.95;;;308.10;2304.00;;;;;;4806467;29;20442;-69
2022/04/16 01:52:32;;;;;;;13.95;11.82;;;308.00;2304.00;;;;;;4806384;29;20083;-69
2022/04/16 01:54:59;;;;;;;15.02;11.52;;;308.00;2304.00;;;;;;4806347;29;20035;-69
2022/04/16 01:57:25;;;;;;;14.40;11.05;;;308.00;2304.00;;;;;;4806318;29;20106;-69
2022/04/16 01:59:52;;;;;;;14.43;12.13;;;308.00;2304.00;;;;;;4806410;29;20039;-67
2022/04/16 02:02:19;;;;;;;13.48;11.23;;;307.90;2304.00;;;;;;4806481;29;20086;-68
2022/04/16 02:04:46;;;;;;;12.55;11.25;;;307.90;2304.00;;;;;;4806397;29;20546;-68
2022/04/16 02:07:12;;;;;;;14.40;10.95;;;307.90;2304.00;;;;;;4806269;29;20080;-68
2022/04/16 02:09:38;;;;;;;15.15;11.32;;;307.80;2304.00;;;;;;4806148;29;20074;-71
2022/04/16 02:12:04;;;;;;;14.05;11.18;;;307.80;2304.00;;;;;;4806256;29;20030;-68
2022/04/16 02:14:30;;;;;;;14.60;12.02;;;307.80;2304.00;;;;;;4806214;29;20063;-69
2022/04/16 02:16:57;;;;;;;13.07;11.20;;;307.80;2304.00;;;;;;4789986;29;20118;-69
2022/04/16 02:19:23;;;;;;;15.80;11.73;;;307.80;2304.00;;;;;;4806233;29;20110;-68
2022/04/16 02:21:49;;;;;;;13.35;11.55;;;307.70;2304.00;;;;;;4806424;29;20058;-69
2022/04/16 02:24:17;;;;;;;14.65;11.07;;;307.80;2304.00;;;;;;4806091;29;20396;-70
2022/04/16 02:26:44;;;;;;;15.80;12.52;;;307.70;2304.00;;;;;;4806119;29;20059;-68
2022/04/16 02:29:10;;;;;;;13.27;11.88;;;307.70;2304.00;;;;;;4806078;29;20074;-69
2022/04/16 02:31:40;;;;;;;14.00;11.73;;;307.70;2304.00;;;;;;4805935;29;20054;-69
2022/04/16 02:34:07;;;;;;;13.10;11.70;;;307.70;2304.00;;;;;;4806008;29;20035;-69
2022/04/16 02:36:34;;;;;;;14.15;11.65;;;307.70;2304.00;;;;;;4806030;29;20435;-69
2022/04/16 02:39:00;;;;;;;13.02;11.43;;;307.70;2304.00;;;;;;4789766;29;20432;-68
2022/04/16 02:41:27;;;;;;;15.43;12.40;;;307.70;2304.00;;;;;;4789796;29;20396;-68
2022/04/16 02:43:58;;;;;;;15.55;12.05;;;307.70;2304.00;;;;;;4806002;29;20034;-67
2022/04/16 02:49:10;;;;;;;15.60;11.68;;;307.80;2304.00;;;;;;4806096;29;20074;-68
2022/04/16 02:51:37;;;;;;;14.20;11.65;;;307.70;2304.00;;;;;;4807255;29;20029;-67
2022/04/16 02:54:03;;;;;;;13.88;11.85;;;307.80;2304.00;;;;;;4809566;29;20034;-68
2022/04/16 02:56:29;;;;;;;14.60;12.23;;;307.70;2304.00;;;;;;4809275;29;20026;-68
2022/04/16 02:58:55;;;;;;;13.45;12.05;;;307.60;2304.00;;;;;;4809229;29;20019;-68
2022/04/16 03:01:21;;;;;;;17.38;14.18;;;307.60;2304.00;;;;;;4808327;29;20396;-68
2022/04/16 03:03:47;;;;;;;15.20;13.47;;;307.70;2304.00;;;;;;4808076;29;20393;-68
2022/04/16 03:06:12;;;;;;;18.08;16.00;;;307.90;2304.00;;;;;;4808000;29;20389;-68
2022/04/16 03:08:38;;;;;;;48.28;42.05;;;308.00;2304.00;;;;;;4807852;29;20398;-67
2022/04/16 03:11:04;;;;;;;64.70;54.60;;;307.90;2304.00;;;;;;4807796;29;20402;-67
2022/04/16 03:13:34;;;;;;;67.55;56.92;;;307.90;2304.00;;;;;;4807742;29;20396;-68
2022/04/16 03:18:45;;;;;;;68.50;60.17;;;307.80;2304.00;;;;;;4808209;29;20386;-68
2022/04/16 03:21:11;;;;;;;64.03;53.83;;;307.70;2304.00;;;;;;4791423;29;20453;-67
2022/04/16 03:23:38;;;;;;;62.10;52.10;;;307.80;2304.00;;;;;;4791407;29;20887;-68
2022/04/16 03:26:03;;;;;;;64.93;53.22;;;307.90;2304.00;;;;;;4807624;29;20488;-68
2022/04/16 03:28:31;;;;;;;63.22;53.38;;;308.00;2304.00;;;;;;4807402;29;20500;-68
2022/04/16 03:30:58;;;;;;;66.43;56.88;;;308.10;2304.00;;;;;;4807345;29;20405;-68
2022/04/16 03:33:24;;;;;;;78.45;64.55;;;308.10;2304.00;;;;;;4807733;29;20398;-68
2022/04/16 03:35:51;;;;;;;71.90;63.10;;;308.00;2304.00;;;;;;4807398;29;20454;-68
2022/04/16 03:38:18;;;;;;;70.70;59.95;;;308.00;2304.00;;;;;;4807352;29;20394;-68
2022/04/16 03:40:44;;;;;;;63.95;54.33;;;308.10;2304.00;;;;;;4807294;29;20417;-68
2022/04/16 03:43:11;;;;;;;59.03;51.03;;;332.80;2329.60;;;;;;4807556;29;20496;-68
2022/04/16 03:45:37;;;;;;;50.60;42.33;;;332.90;2329.60;;;;;;4807515;29;20390;-68
2022/04/16 03:48:07;;;;;;;34.45;30.60;;;333.00;2329.60;;;;;;4807170;29;20542;-68
2022/04/16 03:50:34;;;;;;;30.88;25.75;;;333.00;2329.60;;;;;;4807015;29;20425;-67
2022/04/16 03:53:00;;;;;;;23.75;20.73;;;333.10;2329.60;;;;;;4807226;29;20397;-68
2022/04/16 04:00:58;;;;;;;16.58;14.57;;;;;;;;;;4807599;29;20465;-68
2022/04/16 04:03:25;;;;;;;31.65;24.48;;;333.40;2329.60;;;;;;4806715;29;20891;-69
2022/04/16 04:05:53;;;;;;;26.30;19.92;;;333.30;2329.60;;;;;;4806973;29;20398;-69
2022/04/16 04:08:20;;;;;;;19.33;17.00;;;333.30;2329.60;;;;;;4807016;29;20951;-71
2022/04/16 04:10:47;;;;;;;48.05;33.72;;;333.40;2329.60;;;;;;4806812;29;20930;-68
2022/04/16 04:13:13;;;;;;;45.97;34.83;;;333.30;2329.60;;;;;;4806755;29;20943;-69
2022/04/16 04:15:40;;;;;;;28.23;22.75;;;333.30;2329.60;;;;;;4806736;29;20409;-68
2022/04/16 04:18:06;;;;;;;16.35;13.52;;;333.40;2329.60;;;;;;4806748;29;20405;-69
2022/04/16 04:20:34;;;;;;;13.10;11.23;;;333.40;2329.60;;;;;;4806790;29;20408;-68
2022/04/16 04:22:59;;;;;;;16.35;14.55;;;333.40;2329.60;;;;;;4806726;29;20417;-68
2022/04/16 04:25:25;;;;;;;19.30;16.13;;;333.30;2329.60;;;;;;4806609;29;20397;-69
2022/04/16 04:27:52;;;;;;;15.82;14.15;;;333.30;2329.60;;;;;;4807166;29;20398;-69
2022/04/16 04:30:19;;;;;;;13.82;12.00;;;333.30;2329.60;;;;;;4806558;29;20417;-68
2022/04/16 04:32:44;;;;;;;24.23;19.33;;;333.30;2329.60;;;;;;4806289;29;20414;-74
2022/04/16 04:35:11;;;;;;;22.35;17.23;;;333.30;2329.60;;;;;;4806538;29;20756;-68
2022/04/16 04:37:37;;;;;;;13.65;12.23;;;333.30;2329.60;;;;;;4806510;29;20401;-69
2022/04/16 04:40:03;;;;;;;12.63;11.32;;;333.20;2329.60;;;;;;4790264;29;20414;-70
2022/04/16 04:42:31;;;;;;;12.75;11.45;;;333.30;2329.60;;;;;;4806423;29;20398;-70
2022/04/16 04:44:58;;;;;;;14.13;11.77;;;333.30;2329.60;;;;;;4806723;29;20902;-71
2022/04/16 04:47:25;;;;;;;13.10;11.88;;;333.30;2329.60;;;;;;4790140;29;20490;-67
2022/04/16 04:49:51;;;;;;;13.93;10.80;;;333.30;2329.60;;;;;;4806193;29;20429;-68
2022/04/16 04:52:26;;;;;;;11.93;10.77;;;333.20;2329.60;;;;;;4806718;29;20429;-69
2022/04/16 04:54:56;;;;;;;15.73;10.70;;;333.20;2329.60;;;;;;4806095;29;20408;-69
2022/04/16 04:57:21;;;;;;;13.37;11.30;;;333.20;2329.60;;;;;;4806164;29;20451;-68
2022/04/16 04:59:47;;;;;;;14.07;11.07;;;333.20;2329.60;;;;;;4806416;29;20876;-67
2022/04/16 05:02:13;;;;;;;12.60;11.40;;;333.20;2329.60;;;;;;4789866;29;20397;-71
2022/04/16 05:04:39;;;;;;;13.90;11.10;;;333.20;2329.60;;;;;;4806024;29;20446;-69
2022/04/16 05:07:06;;;;;;;16.05;13.82;;;333.30;2329.60;;;;;;4806196;29;20468;-69
2022/04/16 05:09:32;;;;;;;17.02;15.18;;;333.20;2329.60;;;;;;4806099;29;20895;-69
2022/04/16 05:11:58;;;;;;;13.35;11.82;;;333.20;2329.60;;;;;;4805879;29;20390;-68
2022/04/16 05:14:24;;;;;;;13.40;12.10;;;333.30;2329.60;;;;;;4805335;29;20400;-66
2022/04/16 05:16:50;;;;;;;13.18;11.88;;;333.30;2329.60;;;;;;4805944;29;20386;-68
2022/04/16 05:19:16;;;;;;;13.50;12.10;;;333.30;2329.60;;;;;;4805852;29;20400;-69
2022/04/16 05:21:43;;;;;;;14.02;12.20;;;333.40;2329.60;;;;;;4789576;29;20394;-69
2022/04/16 05:24:10;;;;;;;14.27;12.85;;;333.50;2329.60;;;;;;4805727;29;20484;-68
2022/04/16 05:26:39;;;;;;;12.80;11.50;;;333.60;2329.60;;;;;;4789522;29;20733;-70
2022/04/16 05:29:06;;;;;;;13.15;11.80;;;333.60;2329.60;;;;;;4789360;29;20486;-68
2022/04/16 05:31:33;;;;;;;12.98;11.70;;;333.60;2329.60;;;;;;4805486;29;20492;-69
2022/04/16 05:36:45;;;;;;;13.23;11.93;;;333.60;2329.60;;;;;;4805971;29;20442;-67
2022/04/16 05:39:11;;;;;;;12.03;10.80;;;333.60;2329.60;;;;;;4805626;29;20459;-68
2022/04/16 05:41:37;;;;;;;12.40;11.10;;;333.50;2329.60;;;;;;4806042;29;20398;-67
2022/04/16 05:44:05;;;;;;;12.40;10.98;;;333.50;2329.60;;;;;;4805524;29;20480;-77
2022/04/16 05:46:31;;;;;;;15.63;13.95;;;333.40;2329.60;;;;;;4805555;29;20401;-69
2022/04/16 05:48:57;;;;;;;12.70;11.48;;;333.50;2329.60;;;;;;4805325;29;20422;-68
2022/04/16 05:51:25;;;;;;;13.75;12.45;;;333.50;2329.60;;;;;;4805497;29;20400;-71
2022/04/16 05:53:52;;;;;;;13.70;12.15;;;333.50;2329.60;;;;;;4805397;29;20410;-68
2022/04/16 05:56:19;;;;;;;12.55;11.18;;;333.50;2329.60;;;;;;4805461;29;20426;-72
2022/04/16 05:58:45;;;;;;;13.23;11.57;;;333.30;2329.60;;;;;;4805399;29;20402;-67
2022/04/16 06:01:12;;;;;;;14.45;12.00;;;333.30;2329.60;;;;;;4789069;29;20428;-71
2022/04/16 06:03:41;;;;;;;15.13;13.05;;;333.30;2329.60;;;;;;4805366;29;20433;-71
2022/04/16 06:06:08;;;;;;;19.98;13.60;;;333.30;2329.60;;;;;;4805429;29;20451;-82
2022/04/16 06:08:34;;;;;;;21.20;14.63;;;333.30;2329.60;;;;;;4805302;29;20449;-75
2022/04/16 06:11:00;;;;;;;20.75;15.02;;;333.20;2329.60;;;;;;4805260;29;20410;-84
2022/04/16 06:13:26;;;;;;;18.45;14.13;;;333.40;2329.60;;;;;;4805421;29;20454;-82
2022/04/16 06:15:52;;;;;;;20.50;14.13;;;333.50;2329.60;;;;;;4805448;29;20457;-69
2022/04/16 06:18:18;;;;;;;18.75;13.48;;;333.50;2329.60;;;;;;4805410;29;20398;-82
2022/04/16 06:20:43;;;;;;;18.63;13.10;;;333.50;2329.60;;;;;;4805645;29;20483;-83
2022/04/16 06:23:09;;;;;;;15.75;12.50;;;333.50;2329.60;;;;;;4805552;29;20411;-68
2022/04/16 06:25:35;;;;;;;15.50;12.68;;;333.60;2329.60;;;;;;4805252;29;20887;-78
2022/04/16 06:28:02;;;;;;;16.63;12.85;;;333.70;2329.60;;;;;;4808941;29;20785;-71
2022/04/16 06:30:28;;;;;;;17.35;12.73;;;358.50;2329.60;;;;;;4808866;29;20424;-72
2022/04/16 06:32:54;;;;;;;17.98;13.50;;;358.60;2329.60;;;;;;4808890;29;20501;-83
2022/04/16 06:35:20;;;;;;;17.73;13.98;;;358.70;2329.60;;;;;;4808877;29;20477;-69
2022/04/16 06:37:46;;;;;;;22.80;14.98;;;358.70;2329.60;;;;;;4808806;29;20737;-85
2022/04/16 06:40:12;;;;;;;14.30;11.52;;;358.60;2329.60;;;;;;4808769;29;20458;-86
2022/04/16 06:42:39;;;;;;;14.95;12.43;;;358.60;2329.60;;;;;;4808756;29;20401;-68
2022/04/16 06:45:07;;;;;;;16.90;13.63;;;358.60;2329.60;;;;;;4808498;29;20413;-68
2022/04/16 06:47:33;;;;;;;18.40;12.80;;;358.70;2329.60;;;;;;4808494;29;20390;-68
2022/04/16 06:49:59;;;;;;;18.40;12.57;;;358.70;2329.60;;;;;;4791983;29;20433;-66
2022/04/16 06:52:24;;;;;;;18.48;13.38;;;358.80;2329.60;;;;;;4808127;29;20398;-65
2022/04/16 06:54:50;;;;;;;15.45;12.80;;;359.30;2329.60;;;;;;4808075;29;20401;-65
2022/04/16 06:57:16;;;;;;;20.13;12.45;;;384.10;2329.60;;;;;;4809102;29;20039;-66
2022/04/16 06:59:42;;;;;;;14.45;10.75;;;384.10;2329.60;;;;;;4823901;29;20038;-65
2022/04/16 07:02:10;;;;;;;13.18;10.52;;;384.10;2329.60;;;;;;4827082;29;20033;-64
2022/04/16 07:04:37;;;;;;;12.80;10.15;;;359.30;2329.60;;;;;;4817790;29;20027;-68
2022/04/16 07:07:03;;;;;;;10.93;9.80;;;359.20;2329.60;;;;;;4808647;29;20038;-64
2022/04/16 07:09:29;;;;;;;10.90;9.68;;;;;;;;;;4808866;29;20064;-68
2022/04/16 07:11:55;;;;;;;;;;;384.80;2329.60;;;;;;4809401;29;20034;-65
2022/04/16 07:14:21;;;;;;;14.23;10.35;;;384.70;2329.60;;;;;;4792942;29;19917;-71
2022/04/16 07:16:47;;;;;;;13.90;10.02;;;384.70;2329.60;;;;;;4808834;29;20027;-66
2022/04/16 07:19:13;;;;;;;;;;;409.70;2355.20;;;;;;4809697;29;20431;-64
2022/04/16 07:21:39;;;;;;;;;;;410.00;2329.60;;;;;;4809153;29;19916;-66
2022/04/16 07:24:04;;;;;;;;;;;410.30;2278.40;;;;;;4809158;29;19909;-64
2022/04/16 07:26:30;;;;;;;11.32;10.05;;;435.20;2252.80;;;;;;4808613;29;19973;-65
2022/04/16 07:28:56;;;;;;;15.48;13.02;;;435.20;2227.20;;;;;;4809124;29;20038;-65
2022/04/16 07:31:22;;;;;;;16.45;11.85;;;410.50;2227.20;;;;;;4808595;29;20047;-68
2022/04/16 07:33:48;;;;;;;11.23;10.02;;;435.30;2227.20;;;;;;4808774;29;20030;-65
2022/04/16 07:36:14;;;;;;;11.90;9.20;;;435.70;2124.80;;;;;;4808464;29;20027;-66
2022/04/16 07:38:43;;;;;;;10.77;9.68;;;435.80;2073.60;;;;;;4808131;29;20063;-64
2022/04/16 07:41:10;;;;;;;11.63;9.52;;;435.70;2073.60;;;;;;4808872;29;20023;-64
2022/04/16 07:43:36;;;;;;;12.35;9.73;;;;;;;;;;4808390;29;20473;-64
2022/04/16 07:46:02;;;;;;;12.07;9.98;;;436.00;2048.00;;;;;;4808526;29;20117;-67
2022/04/16 07:48:28;;;;;;;11.68;9.32;;;436.00;2022.40;;;;;;4808352;29;20058;-69
2022/04/16 07:50:54;;;;;;;10.32;9.23;;;460.80;1996.80;;;;;;4808168;29;20493;-64
2022/04/16 07:53:20;;;;;;;9.95;8.95;;;436.00;1971.20;;;;;;4809825;29;20030;-65
2022/04/16 07:55:47;;;;;;;10.68;8.70;;;435.90;1996.80;;;;;;4816061;29;20536;-66
2022/04/16 07:58:13;;;;;;;9.73;8.73;;;435.30;2022.40;;;;;;4816334;29;20019;-66
2022/04/16 08:00:39;;;;;;;10.60;8.43;;;435.80;1996.80;;;;;;4816560;29;20027;-66
2022/04/16 08:03:06;;;;;;;9.40;8.40;;;460.90;1920.00;;;;;;4817616;29;20089;-63
2022/04/16 08:05:32;;;;;;;11.10;9.10;;;461.20;1868.80;;;;;;4816122;29;20046;-64
2022/04/16 08:07:57;;;;;;;12.27;9.07;;;461.60;1843.20;;;;;;4816577;29;20473;-67
2022/04/16 08:10:24;;;;;;;9.65;8.30;;;486.80;1817.60;;;;;;4817420;29;20039;-66
2022/04/16 08:12:49;;;;;;;9.60;8.60;;;486.80;1740.80;;;;;;4807887;29;20038;-66
2022/04/16 08:15:15;;;;;;;17.42;10.05;;;486.40;1766.40;;;;;;4817713;29;20054;-70
2022/04/16 08:17:41;;;;;;;9.30;7.75;;;486.80;1766.40;;;;;;4823097;29;20026;-64
2022/04/16 08:20:08;;;;;;;10.25;7.65;;;;;;;;;;4825471;29;20065;-71
2022/04/16 08:22:38;;;;;;;8.35;7.55;;;512.70;1612.80;;;;;;4825371;29;20468;-64
2022/04/16 08:27:49;;;;;;;11.48;7.32;;;538.10;1536.00;;;;;;4823751;29;20392;-68
2022/04/16 08:30:17;;;;;;;7.80;7.07;;;538.40;1484.80;;;;;;4825220;29;20502;-64
2022/04/16 08:32:44;;;;;;;8.35;7.50;;;;;;;;;;4822838;29;20507;-68
2022/04/16 08:35:14;;;;;;;19.20;7.57;;;589.20;1382.40;;;;;;4825343;29;20022;-67
2022/04/16 08:37:40;;;;;;;8.88;7.05;;;563.70;1408.00;;;;;;4825644;29;20045;-68
2022/04/16 08:40:07;;;;;;;7.22;6.53;;;589.40;1356.80;;;;;;4809424;29;20396;-68
2022/04/16 08:42:34;;;;;;;11.05;9.80;;;614.70;1305.60;;;;;;4825482;29;20030;-66
2022/04/16 08:45:02;;;;;;;7.78;6.93;;;614.50;1280.00;;;;;;4825677;29;20033;-66
2022/04/16 08:47:28;;;;;;;9.00;6.60;;;614.90;1254.40;;;;;;4825474;29;20026;-67
2022/04/16 08:49:54;;;;;;;10.05;8.00;;;614.90;1228.80;;;;;;4808078;29;20038;-71
2022/04/16 08:52:23;;;;;;;8.40;7.60;;;589.70;1280.00;;;;;;4825281;29;20022;-69
2022/04/16 08:54:50;;;;;;;7.80;7.10;;;614.60;1228.80;;;;;;4825796;29;20033;-69
2022/04/16 08:57:15;;;;;;;9.05;7.43;;;589.60;1305.60;;;;;;4808810;29;20034;-69
2022/04/16 08:59:51;;;;;;;34.45;17.48;;;615.10;1228.80;;;;;;4825312;29;20035;-68
2022/04/16 09:02:19;;;;;;;72.43;27.75;;;563.80;1305.60;;;;;;4825177;29;20026;-68
2022/04/16 09:04:47;;;;;;;7.57;6.72;;;563.80;1356.80;;;;;;4808790;29;20106;-69
2022/04/16 09:07:12;;;;;;;8.30;6.80;;;564.00;1305.60;;;;;;4825043;29;20041;-69
2022/04/16 09:09:39;;;;;;;7.32;6.50;;;538.50;1331.20;;;;;;4825143;29;20042;-71
2022/04/16 09:12:17;;;;;;;12.18;10.10;;;563.30;1331.20;;;;;;4825104;29;20358;-73
2022/04/16 09:14:45;;;;;;;14.77;7.43;;;563.40;1331.20;;;;;;4824152;29;20066;-68
2022/04/16 09:17:16;;;;;;;22.55;11.38;;;537.80;1382.40;;;;;;4825039;29;20579;-71
2022/04/16 09:19:42;;;;;;;7.40;6.20;;;512.60;1408.00;;;;;;4825102;29;20040;-68
2022/04/16 09:22:09;;;;;;;45.00;14.93;;;538.00;1356.80;;;;;;4824981;29;20027;-75
2022/04/16 09:24:47;;;;;;;8.23;6.35;;;512.90;1382.40;;;;;;4825164;29;20441;-74
2022/04/16 09:27:13;;;;;;;7.80;6.55;;;538.10;1382.40;;;;;;4824843;29;20475;-73
2022/04/16 09:29:43;;;;;;;13.93;8.30;;;538.50;1331.20;;;;;;4825079;29;20132;-76
2022/04/16 09:32:09;;;;;;;25.85;12.80;;;538.20;1356.80;;;;;;4824830;29;20050;-68
2022/04/16 09:34:35;;;;;;;11.30;6.75;;;537.70;1408.00;;;;;;4824898;29;20385;-75
2022/04/16 09:37:13;;;;;;;44.40;15.35;;;537.90;1382.40;;;;;;4824995;29;20087;-75
2022/04/16 09:39:40;;;;;;;36.95;16.42;;;538.10;1382.40;;;;;;4825020;29;20087;-76
2022/04/16 09:42:05;;;;;;;13.73;7.28;;;563.40;1356.80;;;;;;4824791;29;20022;-75
2022/04/16 09:44:31;;;;;;;37.38;14.43;;;538.50;1331.20;;;;;;4824797;29;20102;-75
2022/04/16 09:46:57;;;;;;;15.35;8.45;;;538.40;1331.20;;;;;;4824804;29;20529;-75
2022/04/16 09:49:24;;;;;;;35.45;15.63;;;563.30;1331.20;;;;;;4824784;29;20064;-76
2022/04/16 09:51:51;;;;;;;48.55;27.83;;;537.80;1356.80;;;;;;4824749;29;20572;-75
2022/04/16 09:54:18;;;;;;;9.85;6.53;;;512.50;1382.40;;;;;;4823997;29;20050;-68
2022/04/16 09:56:49;;;;;;;54.50;17.40;;;512.00;1433.60;;;;;;4824543;29;20022;-76
2022/04/16 09:59:16;;;;;;;34.58;14.35;;;537.60;1433.60;;;;;;4824674;29;20026;-68
2022/04/16 10:01:47;;;;;;;10.70;5.72;;;538.20;1356.80;;;;;;4824438;29;20030;-68
2022/04/16 10:04:17;;;;;;;12.05;7.05;;;538.50;1331.20;;;;;;4824143;29;20061;-68
2022/04/16 10:06:45;;;;;;;10.15;5.63;;;537.80;1356.80;;;;;;4824494;29;20030;-68
2022/04/16 10:09:13;;;;;;;7.13;5.75;;;512.60;1356.80;;;;;;4824452;29;20516;-69
2022/04/16 10:14:44;;;;;;;8.65;5.20;;;486.90;1433.60;;;;;;4824794;29;20118;-67
2022/04/16 10:17:10;;;;;;;6.32;5.68;;;486.70;1459.20;;;;;;4824494;29;20033;-68
2022/04/16 10:19:56;;;;;;;34.63;12.07;;;487.20;1433.60;;;;;;4824381;29;20023;-71
2022/04/16 10:22:26;;;;;;;8.20;6.75;;;512.30;1408.00;;;;;;4824656;29;20041;-74
2022/04/16 10:24:57;;;;;;;8.70;5.47;;;537.70;1356.80;;;;;;4824426;29;20418;-68
2022/04/16 10:27:26;;;;;;;6.43;5.10;;;537.80;1356.80;;;;;;4824368;29;20026;-73
2022/04/16 10:30:00;;;;;;;7.45;5.68;;;538.10;1331.20;;;;;;4824073;29;20121;-68
2022/04/16 10:32:38;;;;;;;6.68;5.43;;;537.70;1356.80;;;;;;4824106;29;20133;-66
2022/04/16 10:35:05;;;;;;;11.50;5.93;;;538.30;1331.20;;;;;;4824823;29;20109;-74
2022/04/16 10:37:38;;;;;;;11.27;6.07;;;538.40;1331.20;;;;;;4824081;29;20041;-71
2022/04/16 10:40:25;;;;;;;7.43;5.65;;;512.80;1356.80;;;;;;4824198;29;20038;-70
2022/04/16 10:43:01;;;;;;;6.72;4.88;;;512.00;1408.00;;;;;;4824136;29;20041;-66
2022/04/16 10:45:27;;;;;;;8.18;5.28;;;486.90;1408.00;;;;;;4807762;29;20121;-72
2022/04/16 10:47:56;;;;;;;7.00;5.25;;;486.90;1459.20;;;;;;4823958;29;20087;-67
2022/04/16 10:50:23;;;;;;;9.63;5.60;;;486.90;1459.20;;;;;;4824299;29;20472;-67
2022/04/16 10:52:56;;;;;;;7.53;5.22;;;486.90;1459.20;;;;;;4824236;29;20491;-67
2022/04/16 10:55:30;;;;;;;;;;;487.00;1433.60;;;;;;4824463;29;20035;-66
2022/04/16 10:58:03;;;;;;;7.70;5.53;;;486.90;1433.60;;;;;;4824382;29;19989;-66
2022/04/16 11:00:37;;;;;;;8.25;5.72;;;486.90;1433.60;;;;;;4823983;29;20118;-66
2022/04/16 11:03:09;;;;;;;;;;;486.90;1459.20;;;;;;4824307;29;20166;-67
2022/04/16 11:05:41;;;;;;;8.18;5.38;;;512.00;1408.00;;;;;;4823643;29;19912;-69
2022/04/16 11:08:10;;;;;;;6.70;5.93;;;512.60;1382.40;;;;;;4823823;29;20031;-66
2022/04/16 11:10:35;;;;;;;9.10;5.70;;;512.80;1382.40;;;;;;4823776;29;20583;-66
2022/04/16 11:13:02;;;;;;;9.10;5.68;;;512.10;1408.00;;;;;;4825698;29;20038;-66
2022/04/16 11:15:28;;;;;;;11.75;5.93;;;512.00;1408.00;;;;;;4826967;29;20388;-67
2022/04/16 11:17:58;;;;;;;9.75;5.35;;;486.90;1459.20;;;;;;4826917;29;20030;-66
2022/04/16 11:20:26;;;;;;;8.02;5.45;;;512.60;1382.40;;;;;;4826879;29;20026;-67
2022/04/16 11:22:52;;;;;;;14.27;6.40;;;537.70;1382.40;;;;;;4826954;29;20035;-66
2022/04/16 11:25:22;;;;;;;13.88;6.35;;;512.40;1408.00;;;;;;4826861;29;20031;-67
2022/04/16 11:36:11;;;;;;;9.50;6.32;;;512.80;1408.00;;;;;;4827030;29;20127;-67
2022/04/16 11:38:39;;;;;;;7.18;6.47;;;512.80;1356.80;;;;;;4826534;29;20391;-65
2022/04/16 11:41:10;;;;;;;10.20;6.60;;;537.70;1382.40;;;;;;4826965;29;20063;-72
2022/04/16 11:43:45;;;;;;;6.85;6.13;;;512.80;1356.80;;;;;;4826725;29;20105;-66
2022/04/16 11:46:13;;;;;;;6.85;6.15;;;538.00;1356.80;;;;;;4826799;29;20045;-65
2022/04/16 11:48:47;;;;;;;9.73;7.30;;;537.80;1382.40;;;;;;4826419;29;20037;-65
2022/04/16 11:51:14;;;;;;;8.38;6.72;;;537.80;1382.40;;;;;;4826312;29;20073;-64
2022/04/16 11:53:50;;;;;;;7.65;6.07;;;537.80;1356.80;;;;;;4826896;29;20030;-62
2022/04/16 11:56:22;;;;;;;10.20;6.18;;;537.80;1356.80;;;;;;4826387;29;20033;-65
2022/04/16 11:58:52;;;;;;;11.57;7.07;;;537.90;1356.80;;;;;;4826210;29;20106;-63
2022/04/16 12:01:23;;;;;;;8.73;6.93;;;538.00;1356.80;;;;;;4826171;29;20046;-66
2022/04/16 12:03:53;;;;;;;8.95;7.03;;;537.90;1382.40;;;;;;4826161;29;20026;-71
2022/04/16 12:06:19;;;;;;;7.78;6.65;;;538.10;1356.80;;;;;;4825389;29;20074;-64
2022/04/16 12:08:46;;;;;;;8.43;6.70;;;538.10;1356.80;;;;;;4826177;29;20101;-74
2022/04/16 12:11:15;;;;;;;9.32;7.25;;;563.40;1356.80;;;;;;4826056;29;20495;-69
2022/04/16 12:13:42;;;;;;;8.68;6.47;;;563.40;1382.40;;;;;;4826027;29;20030;-64
2022/04/16 12:16:11;;;;;;;9.45;6.40;;;563.70;1331.20;;;;;;4825959;29;20057;-74
2022/04/16 12:18:46;;;;;;;8.15;6.15;;;563.50;1331.20;;;;;;4825923;29;20487;-75
2022/04/16 12:21:17;;;;;;;7.05;6.07;;;538.50;1331.20;;;;;;4825930;29;20125;-70
2022/04/16 12:23:44;;;;;;;10.70;7.30;;;538.50;1331.20;;;;;;4825795;29;20034;-64
2022/04/16 12:26:17;;;;;;;8.27;6.78;;;563.70;1331.20;;;;;;4825873;29;20109;-67
2022/04/16 12:28:48;;;;;;;9.38;6.93;;;563.80;1305.60;;;;;;4825936;29;20380;-71
2022/04/16 12:31:25;;;;;;;9.77;6.82;;;563.60;1331.20;;;;;;4809189;29;20137;-66
2022/04/16 12:33:51;;;;;;;8.20;7.25;;;563.80;1331.20;;;;;;4825762;29;20038;-65
2022/04/16 12:36:17;;;;;;;8.45;6.57;;;563.40;1331.20;;;;;;4825721;29;20079;-76
2022/04/16 12:38:42;;;;;;;13.30;7.93;;;563.30;1331.20;;;;;;4825805;29;20027;-75